sensor_id;sensor_type;location;lat;lon;timestamp;pressure;altitude;pressure_sealevel;temperature;humidity
10646;BME280;5371;49.782;9.932;2022-12-18T00:02:21;101051.06;;;-10.91;100.00
10646;BME280;5371;49.782;9.932;2022-12-18T00:04:48;101050.28;;;-10.90;100.00
10646;BME280;5371;49.782;9.932;2022-12-18T00:07:15;101044.31;;;-10.92;100.00
10646;BME280;5371;49.782;9.932;2022-12-18T00:09:42;101049.38;;;-10.92;100.00
10646;BME280;5371;49.782;9.932;2022-12-18T00:12:09;101043.66;;;-10.71;100.00
10646;BME280;5371;49.782;9.932;2022-12-18T00:14:38;101045.44;;;-11.04;100.00
10646;BME280;5371;49.782;9.932;2022-12-18T00:17:05;101049.25;;;-11.28;100.00
10646;BME280;5371;49.782;9.932;2022-12-18T00:19:32;101051.13;;;-11.08;100.00
10646;BME280;5371;49.782;9.932;2022-12-18T00:21:59;101052.53;;;-10.97;100.00
10646;BME280;5371;49.782;9.932;2022-12-18T00:24:26;101050.75;;;-11.15;100.00
10646;BME280;5371;49.782;9.932;2022-12-18T00:26:53;101050.38;;;-10.36;100.00
10646;BME280;5371;49.782;9.932;2022-12-18T00:29:20;101064.84;;;-10.14;100.00
10646;BME280;5371;49.782;9.932;2022-12-18T00:31:48;101069.66;;;-10.73;100.00
10646;BME280;5371;49.782;9.932;2022-12-18T00:34:16;101075.66;;;-10.53;100.00
10646;BME280;5371;49.782;9.932;2022-12-18T00:36:43;101071.72;;;-10.11;100.00
10646;BME280;5371;49.782;9.932;2022-12-18T00:39:11;101072.47;;;-10.85;100.00
10646;BME280;5371;49.782;9.932;2022-12-18T00:41:38;101076.19;;;-10.94;100.00
10646;BME280;5371;49.782;9.932;2022-12-18T00:44:24;101074.66;;;-10.57;100.00
10646;BME280;5371;49.782;9.932;2022-12-18T00:46:52;101072.94;;;-10.92;100.00
10646;BME280;5371;49.782;9.932;2022-12-18T00:49:20;101069.03;;;-11.03;100.00
10646;BME280;5371;49.782;9.932;2022-12-18T00:51:47;101066.47;;;-10.69;100.00
10646;BME280;5371;49.782;9.932;2022-12-18T00:54:15;101065.03;;;-10.64;100.00
10646;BME280;5371;49.782;9.932;2022-12-18T00:56:43;101070.75;;;-10.68;100.00
10646;BME280;5371;49.782;9.932;2022-12-18T00:59:11;101076.00;;;-10.64;100.00
10646;BME280;5371;49.782;9.932;2022-12-18T01:01:38;101078.69;;;-11.28;100.00
10646;BME280;5371;49.782;9.932;2022-12-18T01:04:06;101092.66;;;-11.35;100.00
10646;BME280;5371;49.782;9.932;2022-12-18T01:06:33;101103.56;;;-11.52;100.00
10646;BME280;5371;49.782;9.932;2022-12-18T01:09:01;101090.81;;;-11.05;100.00
10646;BME280;5371;49.782;9.932;2022-12-18T01:11:28;101097.13;;;-10.97;100.00
10646;BME280;5371;49.782;9.932;2022-12-18T01:13:55;101101.81;;;-11.37;100.00
10646;BME280;5371;49.782;9.932;2022-12-18T01:16:27;101115.56;;;-11.48;100.00
10646;BME280;5371;49.782;9.932;2022-12-18T01:18:56;101102.75;;;-11.35;100.00
10646;BME280;5371;49.782;9.932;2022-12-18T01:21:24;101114.13;;;-11.43;100.00
10646;BME280;5371;49.782;9.932;2022-12-18T01:23:52;101107.19;;;-11.47;100.00
10646;BME280;5371;49.782;9.932;2022-12-18T01:26:20;101097.84;;;-11.16;100.00
10646;BME280;5371;49.782;9.932;2022-12-18T01:28:47;101085.69;;;-11.07;100.00
10646;BME280;5371;49.782;9.932;2022-12-18T01:31:20;101086.97;;;-10.81;100.00
10646;BME280;5371;49.782;9.932;2022-12-18T01:33:47;101093.22;;;-10.90;100.00
10646;BME280;5371;49.782;9.932;2022-12-18T01:36:17;101107.25;;;-11.13;100.00
10646;BME280;5371;49.782;9.932;2022-12-18T01:38:45;101111.91;;;-11.53;100.00
10646;BME280;5371;49.782;9.932;2022-12-18T01:41:13;101130.03;;;-11.44;100.00
10646;BME280;5371;49.782;9.932;2022-12-18T01:43:42;101121.06;;;-11.39;100.00
10646;BME280;5371;49.782;9.932;2022-12-18T01:46:09;101115.38;;;-11.35;100.00
10646;BME280;5371;49.782;9.932;2022-12-18T01:48:36;101108.91;;;-10.80;100.00
10646;BME280;5371;49.782;9.932;2022-12-18T01:51:04;101110.13;;;-10.89;100.00
10646;BME280;5371;49.782;9.932;2022-12-18T01:53:31;101109.00;;;-10.78;100.00
10646;BME280;5371;49.782;9.932;2022-12-18T01:56:00;101107.66;;;-11.38;100.00
10646;BME280;5371;49.782;9.932;2022-12-18T01:58:30;101104.78;;;-11.28;100.00
10646;BME280;5371;49.782;9.932;2022-12-18T02:01:01;101100.13;;;-10.52;100.00
10646;BME280;5371;49.782;9.932;2022-12-18T02:03:28;101102.69;;;-11.20;100.00
10646;BME280;5371;49.782;9.932;2022-12-18T02:06:01;101102.47;;;-11.41;100.00
10646;BME280;5371;49.782;9.932;2022-12-18T02:08:41;101100.66;;;-10.93;100.00
10646;BME280;5371;49.782;9.932;2022-12-18T02:11:17;101111.13;;;-11.36;100.00
10646;BME280;5371;49.782;9.932;2022-12-18T02:13:53;101109.31;;;-11.22;100.00
10646;BME280;5371;49.782;9.932;2022-12-18T02:16:25;101111.91;;;-11.53;100.00
10646;BME280;5371;49.782;9.932;2022-12-18T02:18:59;101107.31;;;-11.12;100.00
10646;BME280;5371;49.782;9.932;2022-12-18T02:21:34;101102.00;;;-10.84;100.00
10646;BME280;5371;49.782;9.932;2022-12-18T02:24:18;101099.38;;;-10.85;100.00
10646;BME280;5371;49.782;9.932;2022-12-18T02:26:51;101105.50;;;-10.80;100.00
10646;BME280;5371;49.782;9.932;2022-12-18T02:29:26;101107.00;;;-11.02;100.00
10646;BME280;5371;49.782;9.932;2022-12-18T02:32:00;101093.53;;;-10.84;100.00
10646;BME280;5371;49.782;9.932;2022-12-18T02:34:32;101090.44;;;-10.79;100.00
10646;BME280;5371;49.782;9.932;2022-12-18T02:37:04;101087.72;;;-11.00;100.00
10646;BME280;5371;49.782;9.932;2022-12-18T02:39:36;101099.66;;;-11.13;100.00
10646;BME280;5371;49.782;9.932;2022-12-18T02:42:07;101105.78;;;-11.58;100.00
10646;BME280;5371;49.782;9.932;2022-12-18T02:44:35;101099.13;;;-11.73;100.00
10646;BME280;5371;49.782;9.932;2022-12-18T02:47:04;101103.63;;;-11.67;100.00
10646;BME280;5371;49.782;9.932;2022-12-18T02:49:35;101109.19;;;-11.08;100.00
10646;BME280;5371;49.782;9.932;2022-12-18T02:52:08;101108.72;;;-11.17;100.00
10646;BME280;5371;49.782;9.932;2022-12-18T02:54:52;101106.38;;;-11.14;100.00
10646;BME280;5371;49.782;9.932;2022-12-18T02:57:32;101109.97;;;-10.92;100.00
10646;BME280;5371;49.782;9.932;2022-12-18T03:00:04;101111.66;;;-10.93;100.00
10646;BME280;5371;49.782;9.932;2022-12-18T03:02:39;101121.28;;;-11.67;100.00
10646;BME280;5371;49.782;9.932;2022-12-18T03:05:13;101121.38;;;-11.49;100.00
10646;BME280;5371;49.782;9.932;2022-12-18T03:07:47;101116.16;;;-11.36;100.00
10646;BME280;5371;49.782;9.932;2022-12-18T03:10:20;101122.31;;;-11.15;100.00
10646;BME280;5371;49.782;9.932;2022-12-18T03:12:54;101122.41;;;-11.29;100.00
10646;BME280;5371;49.782;9.932;2022-12-18T03:15:27;101124.94;;;-11.29;100.00
10646;BME280;5371;49.782;9.932;2022-12-18T03:18:07;101119.81;;;-11.31;100.00
10646;BME280;5371;49.782;9.932;2022-12-18T03:20:37;101115.75;;;-10.95;100.00
10646;BME280;5371;49.782;9.932;2022-12-18T03:23:09;101132.75;;;-11.41;100.00
10646;BME280;5371;49.782;9.932;2022-12-18T03:25:40;101130.81;;;-11.45;100.00
10646;BME280;5371;49.782;9.932;2022-12-18T03:28:13;101121.50;;;-11.95;100.00
10646;BME280;5371;49.782;9.932;2022-12-18T03:30:43;101122.47;;;-11.93;100.00
10646;BME280;5371;49.782;9.932;2022-12-18T03:33:15;101117.44;;;-11.60;100.00
10646;BME280;5371;49.782;9.932;2022-12-18T03:35:47;101114.50;;;-11.19;100.00
10646;BME280;5371;49.782;9.932;2022-12-18T03:38:16;101131.94;;;-11.24;100.00
10646;BME280;5371;49.782;9.932;2022-12-18T03:40:55;101124.59;;;-11.68;100.00
10646;BME280;5371;49.782;9.932;2022-12-18T03:43:34;101121.50;;;-11.95;100.00
10646;BME280;5371;49.782;9.932;2022-12-18T03:46:08;101125.69;;;-11.95;100.00
10646;BME280;5371;49.782;9.932;2022-12-18T03:48:39;101129.38;;;-11.73;100.00
10646;BME280;5371;49.782;9.932;2022-12-18T03:51:18;101121.66;;;-11.92;100.00
10646;BME280;5371;49.782;9.932;2022-12-18T03:53:53;101133.03;;;-12.15;100.00
10646;BME280;5371;49.782;9.932;2022-12-18T03:56:29;101132.28;;;-11.97;100.00
10646;BME280;5371;49.782;9.932;2022-12-18T03:59:01;101134.22;;;-11.77;100.00
10646;BME280;5371;49.782;9.932;2022-12-18T04:01:32;101126.00;;;-11.89;100.00
10646;BME280;5371;49.782;9.932;2022-12-18T04:04:01;101122.78;;;-11.87;100.00
10646;BME280;5371;49.782;9.932;2022-12-18T04:06:36;101117.75;;;-11.87;100.00
10646;BME280;5371;49.782;9.932;2022-12-18T04:09:04;101122.53;;;-11.91;100.00
10646;BME280;5371;49.782;9.932;2022-12-18T04:11:35;101126.69;;;-11.92;100.00
10646;BME280;5371;49.782;9.932;2022-12-18T04:14:05;101116.91;;;-11.39;100.00
10646;BME280;5371;49.782;9.932;2022-12-18T04:16:34;101109.31;;;-11.22;100.00
10646;BME280;5371;49.782;9.932;2022-12-18T04:19:04;101117.25;;;-11.15;100.00
10646;BME280;5371;49.782;9.932;2022-12-18T04:21:37;101126.25;;;-11.36;100.00
10646;BME280;5371;49.782;9.932;2022-12-18T04:24:04;101123.88;;;-11.82;100.00
10646;BME280;5371;49.782;9.932;2022-12-18T04:26:33;101126.50;;;-11.31;100.00
10646;BME280;5371;49.782;9.932;2022-12-18T04:29:17;101119.78;;;-11.15;100.00
10646;BME280;5371;49.782;9.932;2022-12-18T04:31:45;101128.88;;;-11.35;100.00
10646;BME280;5371;49.782;9.932;2022-12-18T04:34:12;101125.13;;;-11.90;100.00
10646;BME280;5371;49.782;9.932;2022-12-18T04:36:48;101129.00;;;-11.64;100.00
10646;BME280;5371;49.782;9.932;2022-12-18T04:39:19;101137.09;;;-11.39;100.00
10646;BME280;5371;49.782;9.932;2022-12-18T04:41:48;101138.47;;;-11.44;100.00
10646;BME280;5371;49.782;9.932;2022-12-18T04:44:16;101134.63;;;-11.37;100.00
10646;BME280;5371;49.782;9.932;2022-12-18T04:46:43;101138.78;;;-11.05;100.00
10646;BME280;5371;49.782;9.932;2022-12-18T04:49:10;101149.38;;;-11.28;100.00
10646;BME280;5371;49.782;9.932;2022-12-18T04:51:38;101150.41;;;-11.57;100.00
10646;BME280;5371;49.782;9.932;2022-12-18T04:54:05;101152.66;;;-12.09;100.00
10646;BME280;5371;49.782;9.932;2022-12-18T04:56:32;101151.66;;;-12.13;100.00
10646;BME280;5371;49.782;9.932;2022-12-18T04:58:59;101156.81;;;-11.95;100.00
10646;BME280;5371;49.782;9.932;2022-12-18T05:01:28;101159.63;;;-12.05;100.00
10646;BME280;5371;49.782;9.932;2022-12-18T05:03:54;101153.91;;;-11.70;100.00
10646;BME280;5371;49.782;9.932;2022-12-18T05:06:21;101157.03;;;-11.74;100.00
10646;BME280;5371;49.782;9.932;2022-12-18T05:08:48;101153.22;;;-11.67;100.00
10646;BME280;5371;49.782;9.932;2022-12-18T05:11:15;101148.97;;;-11.85;100.00
10646;BME280;5371;49.782;9.932;2022-12-18T05:13:42;101147.81;;;-11.74;100.00
10646;BME280;5371;49.782;9.932;2022-12-18T05:16:11;101142.66;;;-12.07;100.00
10646;BME280;5371;49.782;9.932;2022-12-18T05:18:39;101143.47;;;-11.92;100.00
10646;BME280;5371;49.782;9.932;2022-12-18T05:21:06;101154.50;;;-11.76;100.00
10646;BME280;5371;49.782;9.932;2022-12-18T05:23:34;101161.72;;;-11.82;100.00
10646;BME280;5371;49.782;9.932;2022-12-18T05:26:03;101159.31;;;-12.40;100.00
10646;BME280;5371;49.782;9.932;2022-12-18T05:28:32;101159.41;;;-12.68;100.00
10646;BME280;5371;49.782;9.932;2022-12-18T05:31:01;101160.28;;;-12.68;100.00
10646;BME280;5371;49.782;9.932;2022-12-18T05:33:30;101163.00;;;-12.19;100.00
10646;BME280;5371;49.782;9.932;2022-12-18T05:36:03;101161.38;;;-12.19;100.00
10646;BME280;5371;49.782;9.932;2022-12-18T05:38:31;101168.69;;;-12.23;100.00
10646;BME280;5371;49.782;9.932;2022-12-18T05:40:59;101169.75;;;-12.34;100.00
10646;BME280;5371;49.782;9.932;2022-12-18T05:43:26;101172.97;;;-11.91;100.00
10646;BME280;5371;49.782;9.932;2022-12-18T05:45:54;101177.63;;;-11.83;100.00
10646;BME280;5371;49.782;9.932;2022-12-18T05:48:23;101179.84;;;-11.73;100.00
10646;BME280;5371;49.782;9.932;2022-12-18T05:50:50;101166.06;;;-11.63;100.00
10646;BME280;5371;49.782;9.932;2022-12-18T05:53:20;101165.84;;;-11.67;100.00
10646;BME280;5371;49.782;9.932;2022-12-18T05:55:47;101170.09;;;-11.66;100.00
10646;BME280;5371;49.782;9.932;2022-12-18T05:58:14;101180.78;;;-11.87;100.00
10646;BME280;5371;49.782;9.932;2022-12-18T06:00:44;101181.69;;;-12.01;100.00
10646;BME280;5371;49.782;9.932;2022-12-18T06:03:12;101195.28;;;-12.28;100.00
10646;BME280;5371;49.782;9.932;2022-12-18T06:05:41;101190.31;;;-12.12;100.00
10646;BME280;5371;49.782;9.932;2022-12-18T06:08:09;101192.44;;;-12.49;100.00
10646;BME280;5371;49.782;9.932;2022-12-18T06:10:38;101202.22;;;-12.24;100.00
10646;BME280;5371;49.782;9.932;2022-12-18T06:13:06;101201.88;;;-12.45;100.00
10646;BME280;5371;49.782;9.932;2022-12-18T06:15:35;101201.19;;;-12.13;100.00
10646;BME280;5371;49.782;9.932;2022-12-18T06:18:02;101205.19;;;-12.02;100.00
10646;BME280;5371;49.782;9.932;2022-12-18T06:20:29;101204.13;;;-12.05;100.00
10646;BME280;5371;49.782;9.932;2022-12-18T06:22:56;101210.75;;;-12.52;100.00
10646;BME280;5371;49.782;9.932;2022-12-18T06:25:23;101215.03;;;-11.90;100.00
10646;BME280;5371;49.782;9.932;2022-12-18T06:27:51;101211.75;;;-11.89;100.00
10646;BME280;5371;49.782;9.932;2022-12-18T06:30:18;101205.97;;;-12.03;100.00
10646;BME280;5371;49.782;9.932;2022-12-18T06:32:46;101202.16;;;-12.11;100.00
10646;BME280;5371;49.782;9.932;2022-12-18T06:35:14;101205.31;;;-11.68;100.00
10646;BME280;5371;49.782;9.932;2022-12-18T06:37:41;101211.00;;;-12.18;100.00
10646;BME280;5371;49.782;9.932;2022-12-18T06:40:08;101203.88;;;-12.25;100.00
10646;BME280;5371;49.782;9.932;2022-12-18T06:42:35;101200.50;;;-12.25;100.00
10646;BME280;5371;49.782;9.932;2022-12-18T06:45:04;101202.69;;;-12.31;100.00
10646;BME280;5371;49.782;9.932;2022-12-18T06:47:31;101210.56;;;-12.25;100.00
10646;BME280;5371;49.782;9.932;2022-12-18T06:49:58;101214.25;;;-12.20;100.00
10646;BME280;5371;49.782;9.932;2022-12-18T06:52:25;101211.75;;;-11.89;100.00
10646;BME280;5371;49.782;9.932;2022-12-18T06:54:52;101211.47;;;-11.63;100.00
10646;BME280;5371;49.782;9.932;2022-12-18T06:57:19;101208.25;;;-11.77;100.00
10646;BME280;5371;49.782;9.932;2022-12-18T06:59:46;101204.59;;;-11.82;100.00
10646;BME280;5371;49.782;9.932;2022-12-18T07:02:14;101207.78;;;-11.53;100.00
10646;BME280;5371;49.782;9.932;2022-12-18T07:04:41;101204.38;;;-11.07;100.00
10646;BME280;5371;49.782;9.932;2022-12-18T07:07:08;101207.66;;;-10.91;100.00
10646;BME280;5371;49.782;9.932;2022-12-18T07:09:39;101218.16;;;-11.00;100.00
10646;BME280;5371;49.782;9.932;2022-12-18T07:12:06;101223.38;;;-10.97;100.00
10646;BME280;5371;49.782;9.932;2022-12-18T07:14:33;101210.03;;;-10.78;100.00
10646;BME280;5371;49.782;9.932;2022-12-18T07:17:00;101219.88;;;-10.50;100.00
10646;BME280;5371;49.782;9.932;2022-12-18T07:19:29;101213.31;;;-10.47;100.00
10646;BME280;5371;49.782;9.932;2022-12-18T07:21:56;101213.03;;;-10.35;100.00
10646;BME280;5371;49.782;9.932;2022-12-18T07:24:23;101212.75;;;-9.88;100.00
10646;BME280;5371;49.782;9.932;2022-12-18T07:26:50;101204.22;;;-9.72;100.00
10646;BME280;5371;49.782;9.932;2022-12-18T07:29:17;101206.91;;;-9.69;100.00
10646;BME280;5371;49.782;9.932;2022-12-18T07:31:44;101210.72;;;-9.60;100.00
10646;BME280;5371;49.782;9.932;2022-12-18T07:34:11;101214.50;;;-9.69;100.00
10646;BME280;5371;49.782;9.932;2022-12-18T07:36:39;101219.84;;;-9.26;100.00
10646;BME280;5371;49.782;9.932;2022-12-18T07:39:06;101229.38;;;-9.58;100.00
10646;BME280;5371;49.782;9.932;2022-12-18T07:41:33;101230.25;;;-9.75;100.00
10646;BME280;5371;49.782;9.932;2022-12-18T07:44:09;101236.75;;;-9.62;100.00
10646;BME280;5371;49.782;9.932;2022-12-18T07:46:36;101237.97;;;-9.72;100.00
10646;BME280;5371;49.782;9.932;2022-12-18T07:49:03;101239.44;;;-9.22;100.00
10646;BME280;5371;49.782;9.932;2022-12-18T07:51:30;101241.06;;;-9.42;100.00
10646;BME280;5371;49.782;9.932;2022-12-18T07:53:58;101244.41;;;-9.43;100.00
10646;BME280;5371;49.782;9.932;2022-12-18T07:56:25;101234.13;;;-9.46;100.00
10646;BME280;5371;49.782;9.932;2022-12-18T07:58:52;101234.19;;;-9.08;100.00
10646;BME280;5371;49.782;9.932;2022-12-18T08:01:19;101225.97;;;-8.63;100.00
10646;BME280;5371;49.782;9.932;2022-12-18T08:03:46;101230.97;;;-8.46;100.00
10646;BME280;5371;49.782;9.932;2022-12-18T08:06:12;101227.09;;;-8.38;100.00
10646;BME280;5371;49.782;9.932;2022-12-18T08:08:39;101231.34;;;-8.16;100.00
10646;BME280;5371;49.782;9.932;2022-12-18T08:11:09;101231.53;;;-8.11;100.00
10646;BME280;5371;49.782;9.932;2022-12-18T08:13:35;101233.94;;;-8.14;100.00
10646;BME280;5371;49.782;9.932;2022-12-18T08:16:04;101230.78;;;-8.09;100.00
10646;BME280;5371;49.782;9.932;2022-12-18T08:18:32;101240.41;;;-8.00;100.00
10646;BME280;5371;49.782;9.932;2022-12-18T08:21:07;101237.72;;;-7.84;100.00
10646;BME280;5371;49.782;9.932;2022-12-18T08:23:37;101249.94;;;-7.74;100.00
10646;BME280;5371;49.782;9.932;2022-12-18T08:26:05;101244.63;;;-8.01;100.00
10646;BME280;5371;49.782;9.932;2022-12-18T08:28:34;101243.81;;;-8.00;100.00
10646;BME280;5371;49.782;9.932;2022-12-18T08:31:01;101247.97;;;-8.43;100.00
10646;BME280;5371;49.782;9.932;2022-12-18T08:33:28;101245.41;;;-8.03;100.00
10646;BME280;5371;49.782;9.932;2022-12-18T08:35:55;101241.28;;;-7.58;100.00
10646;BME280;5371;49.782;9.932;2022-12-18T08:38:22;101241.31;;;-7.34;100.00
10646;BME280;5371;49.782;9.932;2022-12-18T08:40:48;101220.94;;;-6.42;100.00
10646;BME280;5371;49.782;9.932;2022-12-18T08:43:18;101215.78;;;-6.18;100.00
10646;BME280;5371;49.782;9.932;2022-12-18T08:46:04;101216.81;;;-6.38;100.00
10646;BME280;5371;49.782;9.932;2022-12-18T08:48:31;101219.91;;;-6.71;100.00
10646;BME280;5371;49.782;9.932;2022-12-18T08:50:59;101220.84;;;-6.69;100.00
10646;BME280;5371;49.782;9.932;2022-12-18T08:53:27;101221.44;;;-6.76;100.00
10646;BME280;5371;49.782;9.932;2022-12-18T08:55:56;101217.78;;;-6.84;100.00
10646;BME280;5371;49.782;9.932;2022-12-18T08:58:25;101213.38;;;-6.88;100.00
10646;BME280;5371;49.782;9.932;2022-12-18T09:00:52;101218.84;;;-7.46;100.00
10646;BME280;5371;49.782;9.932;2022-12-18T09:03:20;101216.47;;;-7.19;100.00
10646;BME280;5371;49.782;9.932;2022-12-18T09:05:48;101212.97;;;-6.76;100.00
10646;BME280;5371;49.782;9.932;2022-12-18T09:08:15;101210.13;;;-6.60;100.00
10646;BME280;5371;49.782;9.932;2022-12-18T09:10:42;101215.69;;;-6.47;100.00
10646;BME280;5371;49.782;9.932;2022-12-18T09:13:10;101209.91;;;-6.90;100.00
10646;BME280;5371;49.782;9.932;2022-12-18T09:15:40;101205.34;;;-6.76;100.00
10646;BME280;5371;49.782;9.932;2022-12-18T09:18:08;101207.41;;;-6.41;100.00
10646;BME280;5371;49.782;9.932;2022-12-18T09:20:37;101208.41;;;-6.36;100.00
10646;BME280;5371;49.782;9.932;2022-12-18T09:23:05;101206.91;;;-6.31;100.00
10646;BME280;5371;49.782;9.932;2022-12-18T09:25:33;101204.47;;;-6.26;100.00
10646;BME280;5371;49.782;9.932;2022-12-18T09:28:01;101206.69;;;-6.86;100.00
10646;BME280;5371;49.782;9.932;2022-12-18T09:30:29;101209.22;;;-6.37;100.00
10646;BME280;5371;49.782;9.932;2022-12-18T09:32:56;101206.63;;;-6.13;100.00
10646;BME280;5371;49.782;9.932;2022-12-18T09:35:23;101204.59;;;-6.74;100.00
10646;BME280;5371;49.782;9.932;2022-12-18T09:37:51;101190.56;;;-6.87;100.00
10646;BME280;5371;49.782;9.932;2022-12-18T09:40:21;101187.00;;;-6.43;100.00
10646;BME280;5371;49.782;9.932;2022-12-18T09:42:52;101179.50;;;-6.13;100.00
10646;BME280;5371;49.782;9.932;2022-12-18T09:45:21;101184.63;;;-5.84;100.00
10646;BME280;5371;49.782;9.932;2022-12-18T09:47:50;101177.19;;;-5.77;100.00
10646;BME280;5371;49.782;9.932;2022-12-18T09:50:24;101183.00;;;-6.34;100.00
10646;BME280;5371;49.782;9.932;2022-12-18T09:52:57;101178.34;;;-6.22;100.00
10646;BME280;5371;49.782;9.932;2022-12-18T09:55:29;101166.38;;;-5.70;100.00
10646;BME280;5371;49.782;9.932;2022-12-18T09:58:02;101174.78;;;-5.44;100.00
10646;BME280;5371;49.782;9.932;2022-12-18T10:00:31;101178.19;;;-5.15;100.00
10646;BME280;5371;49.782;9.932;2022-12-18T10:03:00;101180.13;;;-5.64;100.00
10646;BME280;5371;49.782;9.932;2022-12-18T10:05:35;101190.91;;;-6.27;100.00
10646;BME280;5371;49.782;9.932;2022-12-18T10:08:15;101195.41;;;-5.64;100.00
10646;BME280;5371;49.782;9.932;2022-12-18T10:10:48;101190.25;;;-5.94;100.00
10646;BME280;5371;49.782;9.932;2022-12-18T10:13:22;101193.50;;;-5.43;100.00
10646;BME280;5371;49.782;9.932;2022-12-18T10:16:01;101190.75;;;-5.21;100.00
10646;BME280;5371;49.782;9.932;2022-12-18T10:18:48;101187.53;;;-5.44;100.00
10646;BME280;5371;49.782;9.932;2022-12-18T10:21:23;101183.69;;;-5.00;100.00
10646;BME280;5371;49.782;9.932;2022-12-18T10:23:58;101184.59;;;-4.98;100.00
10646;BME280;5371;49.782;9.932;2022-12-18T10:26:31;101183.69;;;-5.01;100.00
10646;BME280;5371;49.782;9.932;2022-12-18T10:28:59;101179.81;;;-5.47;100.00
10646;BME280;5371;49.782;9.932;2022-12-18T10:31:26;101168.22;;;-5.06;100.00
10646;BME280;5371;49.782;9.932;2022-12-18T10:33:54;101164.25;;;-4.96;100.00
10646;BME280;5371;49.782;9.932;2022-12-18T10:36:22;101158.91;;;-5.05;100.00
10646;BME280;5371;49.782;9.932;2022-12-18T10:38:49;101151.59;;;-4.92;100.00
10646;BME280;5371;49.782;9.932;2022-12-18T10:41:27;101143.22;;;-4.87;100.00
10646;BME280;5371;49.782;9.932;2022-12-18T10:44:17;101151.91;;;-4.81;100.00
10646;BME280;5371;49.782;9.932;2022-12-18T10:46:45;101148.56;;;-4.78;100.00
10646;BME280;5371;49.782;9.932;2022-12-18T10:49:22;101153.63;;;-4.80;100.00
10646;BME280;5371;49.782;9.932;2022-12-18T10:51:51;101156.94;;;-4.82;100.00
10646;BME280;5371;49.782;9.932;2022-12-18T10:54:21;101155.09;;;-4.57;100.00
10646;BME280;5371;49.782;9.932;2022-12-18T10:56:50;101157.81;;;-4.50;100.00
10646;BME280;5371;49.782;9.932;2022-12-18T10:59:18;101159.72;;;-4.42;100.00
10646;BME280;5371;49.782;9.932;2022-12-18T11:01:47;101156.75;;;-4.24;100.00
10646;BME280;5371;49.782;9.932;2022-12-18T11:04:19;101155.34;;;-4.47;100.00
10646;BME280;5371;49.782;9.932;2022-12-18T11:06:56;101154.69;;;-4.39;100.00
10646;BME280;5371;49.782;9.932;2022-12-18T11:09:25;101152.38;;;-3.94;100.00
10646;BME280;5371;49.782;9.932;2022-12-18T11:11:55;101147.09;;;-4.00;100.00
10646;BME280;5371;49.782;9.932;2022-12-18T11:14:25;101136.97;;;-3.97;100.00
10646;BME280;5371;49.782;9.932;2022-12-18T11:16:53;101127.50;;;-4.02;100.00
10646;BME280;5371;49.782;9.932;2022-12-18T11:19:28;101125.81;;;-4.02;100.00
10646;BME280;5371;49.782;9.932;2022-12-18T11:21:57;101117.53;;;-3.90;100.00
10646;BME280;5371;49.782;9.932;2022-12-18T11:24:28;101100.88;;;-3.73;100.00
10646;BME280;5371;49.782;9.932;2022-12-18T11:27:00;101102.31;;;-3.86;100.00
10646;BME280;5371;49.782;9.932;2022-12-18T11:29:32;101100.72;;;-3.81;100.00
10646;BME280;5371;49.782;9.932;2022-12-18T11:32:24;101097.50;;;-3.72;100.00
10646;BME280;5371;49.782;9.932;2022-12-18T11:35:03;101090.09;;;-3.60;100.00
10646;BME280;5371;49.782;9.932;2022-12-18T11:37:31;101093.47;;;-3.61;100.00
10646;BME280;5371;49.782;9.932;2022-12-18T11:40:02;101085.16;;;-3.51;100.00
10646;BME280;5371;49.782;9.932;2022-12-18T11:42:37;101087.00;;;-3.44;100.00
10646;BME280;5371;49.782;9.932;2022-12-18T11:45:20;101085.78;;;-3.62;100.00
10646;BME280;5371;49.782;9.932;2022-12-18T11:47:56;101094.44;;;-3.56;100.00
10646;BME280;5371;49.782;9.932;2022-12-18T11:50:26;101093.84;;;-3.43;100.00
10646;BME280;5371;49.782;9.932;2022-12-18T11:52:55;101094.06;;;-3.32;100.00
10646;BME280;5371;49.782;9.932;2022-12-18T11:55:30;101102.34;;;-3.44;100.00
10646;BME280;5371;49.782;9.932;2022-12-18T11:58:07;101094.09;;;-3.30;100.00
10646;BME280;5371;49.782;9.932;2022-12-18T12:00:45;101090.09;;;-3.60;100.00
10646;BME280;5371;49.782;9.932;2022-12-18T12:03:27;101088.47;;;-3.56;100.00
10646;BME280;5371;49.782;9.932;2022-12-18T12:06:08;101086.63;;;-3.62;100.00
10646;BME280;5371;49.782;9.932;2022-12-18T12:08:51;101070.28;;;-3.70;100.00
10646;BME280;5371;49.782;9.932;2022-12-18T12:11:27;101066.94;;;-3.67;100.00
10646;BME280;5371;49.782;9.932;2022-12-18T12:14:09;101061.97;;;-3.60;100.00
10646;BME280;5371;49.782;9.932;2022-12-18T12:16:47;101058.66;;;-3.56;100.00
10646;BME280;5371;49.782;9.932;2022-12-18T12:19:26;101046.34;;;-3.31;100.00
10646;BME280;5371;49.782;9.932;2022-12-18T12:22:03;101035.59;;;-3.14;100.00
10646;BME280;5371;49.782;9.932;2022-12-18T12:24:39;101032.84;;;-3.24;100.00
10646;BME280;5371;49.782;9.932;2022-12-18T12:27:19;101027.09;;;-3.13;100.00
10646;BME280;5371;49.782;9.932;2022-12-18T12:29:59;101022.84;;;-3.12;100.00
10646;BME280;5371;49.782;9.932;2022-12-18T12:32:44;101032.97;;;-3.17;100.00
10646;BME280;5371;49.782;9.932;2022-12-18T12:35:23;101038.13;;;-3.15;100.00
10646;BME280;5371;49.782;9.932;2022-12-18T12:38:02;101045.00;;;-3.13;100.00
10646;BME280;5371;49.782;9.932;2022-12-18T12:40:35;101055.88;;;-3.23;100.00
10646;BME280;5371;49.782;9.932;2022-12-18T12:43:10;101060.91;;;-3.27;100.00
10646;BME280;5371;49.782;9.932;2022-12-18T12:45:45;101057.81;;;-3.11;100.00
10646;BME280;5371;49.782;9.932;2022-12-18T12:48:20;101055.31;;;-3.07;100.00
10646;BME280;5371;49.782;9.932;2022-12-18T12:50:50;101059.78;;;-2.96;100.00
10646;BME280;5371;49.782;9.932;2022-12-18T12:53:23;101058.91;;;-2.97;100.00
10646;BME280;5371;49.782;9.932;2022-12-18T12:55:53;101043.41;;;-3.06;100.00
10646;BME280;5371;49.782;9.932;2022-12-18T12:58:29;101036.47;;;-3.13;100.00
10646;BME280;5371;49.782;9.932;2022-12-18T13:01:08;101028.84;;;-3.09;100.00
10646;BME280;5371;49.782;9.932;2022-12-18T13:03:47;101023.81;;;-3.06;100.00